createdAt,value
2018-05-14T00:00:00.595Z,804.36
2018-05-14T00:00:04.813Z,804.33
2018-05-14T00:00:09.024Z,804.34
2018-05-14T00:00:13.127Z,804.34
2018-05-14T00:00:17.233Z,804.34
2018-05-14T00:00:21.344Z,804.27
2018-05-14T00:00:25.450Z,804.3
2018-05-14T00:00:29.771Z,804.31
2018-05-14T00:00:33.877Z,804.31
2018-05-14T00:00:38.199Z,804.27
2018-05-14T00:00:42.515Z,804.26
2018-05-14T00:00:46.728Z,804.31
2018-05-14T00:00:50.946Z,804.26
2018-05-14T00:00:55.265Z,804.29
2018-05-14T00:00:59.475Z,804.25
2018-05-14T00:01:03.568Z,804.25
2018-05-14T00:01:07.676Z,804.23
2018-05-14T00:01:12.013Z,804.22
2018-05-14T00:01:16.337Z,804.24
2018-05-14T00:01:20.553Z,804.22
2018-05-14T00:01:24.878Z,804.2
2018-05-14T00:01:28.986Z,804.22
2018-05-14T00:01:33.193Z,804.2
2018-05-14T00:01:37.292Z,804.22
2018-05-14T00:01:41.504Z,804.19
2018-05-14T00:01:45.717Z,804.19
2018-05-14T00:01:50.034Z,804.17
2018-05-14T00:01:54.026Z,804.2
2018-05-14T00:01:58.340Z,804.18
2018-05-14T00:02:02.548Z,804.16
2018-05-14T00:02:06.768Z,804.14
2018-05-14T00:02:10.981Z,804.16
2018-05-14T00:02:15.294Z,804.13
2018-05-14T00:02:19.615Z,804.14
2018-05-14T00:02:23.935Z,804.13
2018-05-14T00:02:28.045Z,804.14
2018-05-14T00:02:32.363Z,804.14
2018-05-14T00:02:36.467Z,804.12
2018-05-14T00:02:40.680Z,804.1
2018-05-14T00:02:45.027Z,804.14
2018-05-14T00:02:49.134Z,804.09
2018-05-14T00:02:53.455Z,804.09
2018-05-14T00:02:57.777Z,804.09
2018-05-14T00:03:01.932Z,804.11
2018-05-14T00:03:05.934Z,804.09
2018-05-14T00:03:10.150Z,804.06
2018-05-14T00:03:14.362Z,804.08
2018-05-14T00:03:18.580Z,804.08
2018-05-14T00:03:22.789Z,804.08
2018-05-14T00:03:26.998Z,804.06
2018-05-14T00:03:31.097Z,804.04
2018-05-14T00:03:35.308Z,804.01
2018-05-14T00:03:39.855Z,804.04
2018-05-14T00:03:44.645Z,803.99
2018-05-14T00:03:49.313Z,804.03
2018-05-14T00:03:53.979Z,803.97
2018-05-14T00:03:58.187Z,804.02
2018-05-14T00:04:02.398Z,803.99
2018-05-14T00:04:06.516Z,803.98
2018-05-14T00:04:10.511Z,803.97
2018-05-14T00:04:14.722Z,803.94
2018-05-14T00:04:18.935Z,803.96
2018-05-14T00:04:23.149Z,803.99
2018-05-14T00:04:27.272Z,803.96
2018-05-14T00:04:31.592Z,803.98
2018-05-14T00:04:35.693Z,803.99
2018-05-14T00:04:39.991Z,803.96
2018-05-14T00:04:44.200Z,803.95
2018-05-14T00:04:48.407Z,803.94
2018-05-14T00:04:52.613Z,803.91
2018-05-14T00:04:56.945Z,803.92
2018-05-14T00:05:01.082Z,803.94
2018-05-14T00:05:05.085Z,803.93
2018-05-14T00:05:09.403Z,803.93
2018-05-14T00:05:13.729Z,803.93
2018-05-14T00:05:17.830Z,803.93
2018-05-14T00:05:21.934Z,803.9
2018-05-14T00:05:26.142Z,803.89
2018-05-14T00:05:30.243Z,803.88
2018-05-14T00:05:34.343Z,803.85
2018-05-14T00:05:38.445Z,803.83
2018-05-14T00:05:42.760Z,803.85
2018-05-14T00:05:46.975Z,803.84
2018-05-14T00:05:51.188Z,803.81
2018-05-14T00:05:55.296Z,803.81
2018-05-14T00:05:59.697Z,803.87
2018-05-14T00:06:03.854Z,803.87
2018-05-14T00:06:07.962Z,803.83
2018-05-14T00:06:12.062Z,803.8
2018-05-14T00:06:16.400Z,803.85
2018-05-14T00:06:20.610Z,803.85
2018-05-14T00:06:25.019Z,803.85
2018-05-14T00:06:29.224Z,803.81
2018-05-14T00:06:33.536Z,803.84
2018-05-14T00:06:37.753Z,803.79
2018-05-14T00:06:41.960Z,803.78
2018-05-14T00:06:45.951Z,803.82
2018-05-14T00:06:50.054Z,803.79
2018-05-14T00:06:54.262Z,803.82
2018-05-14T00:06:58.481Z,803.78
2018-05-14T00:07:02.810Z,803.79
2018-05-14T00:07:07.000Z,803.78
2018-05-14T00:07:11.208Z,803.79
2018-05-14T00:07:15.319Z,803.79
2018-05-14T00:07:19.645Z,803.77
2018-05-14T00:07:23.964Z,803.8
2018-05-14T00:07:28.285Z,803.79
2018-05-14T00:07:32.505Z,803.81
2018-05-14T00:07:36.727Z,803.78
2018-05-14T00:07:41.045Z,803.74
2018-05-14T00:07:45.258Z,803.76
2018-05-14T00:07:49.365Z,803.74
2018-05-14T00:07:53.466Z,803.75
2018-05-14T00:07:57.575Z,803.72
2018-05-14T00:08:01.576Z,803.74
2018-05-14T00:08:05.785Z,803.74
2018-05-14T00:08:09.992Z,803.74
2018-05-14T00:08:14.097Z,803.69
2018-05-14T00:08:18.199Z,803.76
2018-05-14T00:08:22.412Z,803.75
2018-05-14T00:08:26.623Z,803.72
2018-05-14T00:08:31.026Z,803.73
2018-05-14T00:08:35.237Z,803.74
2018-05-14T00:08:39.557Z,803.74
2018-05-14T00:08:43.758Z,803.75
2018-05-14T00:08:47.864Z,803.7
2018-05-14T00:08:52.193Z,803.7
2018-05-14T00:08:56.514Z,803.76
2018-05-14T00:09:00.727Z,803.71
2018-05-14T00:09:04.836Z,803.73
2018-05-14T00:09:08.941Z,803.72
2018-05-14T00:09:13.154Z,803.73
2018-05-14T00:09:17.472Z,803.75
2018-05-14T00:09:21.787Z,803.75
2018-05-14T00:09:26.006Z,803.69
2018-05-14T00:09:30.119Z,803.71
2018-05-14T00:09:34.440Z,803.68
2018-05-14T00:09:38.541Z,803.67
2018-05-14T00:09:42.752Z,803.7
2018-05-14T00:09:47.082Z,803.69
2018-05-14T00:09:51.413Z,803.69
2018-05-14T00:09:55.630Z,803.67
2018-05-14T00:09:59.849Z,803.67
2018-05-14T00:10:03.876Z,803.64
2018-05-14T00:10:07.874Z,803.71
2018-05-14T00:10:12.084Z,803.67
2018-05-14T00:10:15.970Z,803.7
2018-05-14T00:10:20.285Z,803.65
2018-05-14T00:10:24.513Z,803.64
2018-05-14T00:10:28.918Z,803.62
2018-05-14T00:10:33.253Z,803.64
2018-05-14T00:10:37.569Z,803.62
2018-05-14T00:10:41.777Z,803.67
2018-05-14T00:10:45.882Z,803.64
2018-05-14T00:10:50.203Z,803.68
2018-05-14T00:10:54.428Z,803.66
2018-05-14T00:10:58.746Z,803.69
2018-05-14T00:11:02.960Z,803.66
2018-05-14T00:11:07.169Z,803.69
2018-05-14T00:11:11.276Z,803.65
2018-05-14T00:11:15.492Z,803.65
2018-05-14T00:11:19.807Z,803.63
2018-05-14T00:11:24.017Z,803.66
2018-05-14T00:11:28.227Z,803.67
2018-05-14T00:11:32.346Z,803.62
2018-05-14T00:11:36.561Z,803.66
2018-05-14T00:11:40.860Z,803.67
2018-05-14T00:11:45.179Z,803.65
2018-05-14T00:11:49.178Z,803.66
2018-05-14T00:11:53.492Z,803.68
2018-05-14T00:11:57.703Z,803.63
2018-05-14T00:12:02.020Z,803.65
2018-05-14T00:12:06.012Z,803.67
2018-05-14T00:12:10.007Z,803.66
2018-05-14T00:12:14.217Z,803.66
2018-05-14T00:12:18.432Z,803.67
2018-05-14T00:12:22.640Z,803.65
2018-05-14T00:12:26.744Z,803.67
2018-05-14T00:12:31.068Z,803.63
2018-05-14T00:12:35.275Z,803.62
2018-05-14T00:12:39.606Z,803.64
2018-05-14T00:12:43.912Z,803.64
2018-05-14T00:12:48.117Z,803.6
2018-05-14T00:12:52.128Z,803.61
2018-05-14T00:12:56.337Z,803.62
2018-05-14T00:13:00.749Z,803.62
2018-05-14T00:13:04.968Z,803.64
2018-05-14T00:13:08.958Z,803.66
2018-05-14T00:13:13.167Z,803.61
2018-05-14T00:13:17.384Z,803.62
2018-05-14T00:13:21.698Z,803.63
2018-05-14T00:13:26.024Z,803.63
2018-05-14T00:13:30.135Z,803.62
2018-05-14T00:13:34.456Z,803.61
2018-05-14T00:13:38.782Z,803.56
2018-05-14T00:13:43.125Z,803.62
2018-05-14T00:13:47.459Z,803.61
2018-05-14T00:13:51.783Z,803.64
2018-05-14T00:13:55.890Z,803.61
2018-05-14T00:14:00.001Z,803.59
2018-05-14T00:14:03.892Z,803.6
2018-05-14T00:14:08.222Z,803.63
2018-05-14T00:14:12.442Z,803.59
2018-05-14T00:14:16.654Z,803.55
2018-05-14T00:14:20.970Z,803.58
2018-05-14T00:14:24.966Z,803.6
2018-05-14T00:14:29.180Z,803.6
2018-05-14T00:14:33.395Z,803.55
2018-05-14T00:14:37.492Z,803.57
2018-05-14T00:14:41.700Z,803.56
2018-05-14T00:14:46.024Z,803.56
2018-05-14T00:14:50.420Z,803.56
2018-05-14T00:14:54.631Z,803.55
2018-05-14T00:14:58.849Z,803.53
2018-05-14T00:15:03.066Z,803.5
2018-05-14T00:15:07.176Z,803.54
2018-05-14T00:15:11.496Z,803.51
2018-05-14T00:15:15.812Z,803.58
2018-05-14T00:15:20.030Z,803.59
2018-05-14T00:15:24.357Z,803.57
2018-05-14T00:15:28.567Z,803.54
2018-05-14T00:15:32.669Z,803.55
2018-05-14T00:15:36.982Z,803.55
2018-05-14T00:15:41.295Z,803.49
2018-05-14T00:15:45.624Z,803.56
2018-05-14T00:15:49.725Z,803.56
2018-05-14T00:15:53.939Z,803.53
2018-05-14T00:15:58.278Z,803.51
2018-05-14T00:16:02.487Z,803.53
2018-05-14T00:16:06.588Z,803.52
2018-05-14T00:16:10.695Z,803.53
2018-05-14T00:16:14.915Z,803.51
2018-05-14T00:16:19.121Z,803.44
2018-05-14T00:16:23.115Z,803.46
2018-05-14T00:16:27.329Z,803.5
2018-05-14T00:16:31.647Z,803.53
2018-05-14T00:16:35.966Z,803.51
2018-05-14T00:16:40.182Z,803.49
2018-05-14T00:16:44.509Z,803.48
2018-05-14T00:16:48.717Z,803.51
2018-05-14T00:16:53.044Z,803.46
2018-05-14T00:16:57.259Z,803.46
2018-05-14T00:17:01.479Z,803.48
2018-05-14T00:17:05.719Z,803.48
2018-05-14T00:17:09.951Z,803.43
2018-05-14T00:17:14.276Z,803.5
2018-05-14T00:17:18.485Z,803.48
2018-05-14T00:17:22.817Z,803.5
2018-05-14T00:17:27.041Z,803.49
2018-05-14T00:17:31.263Z,803.48
2018-05-14T00:17:35.471Z,803.48
2018-05-14T00:17:39.680Z,803.48
2018-05-14T00:17:44.008Z,803.45
2018-05-14T00:17:48.218Z,803.48
2018-05-14T00:17:52.532Z,803.46
2018-05-14T00:17:56.849Z,803.48
2018-05-14T00:18:01.166Z,803.48
2018-05-14T00:18:05.160Z,803.45
2018-05-14T00:18:09.381Z,803.45
2018-05-14T00:18:13.604Z,803.43
2018-05-14T00:18:17.920Z,803.41
2018-05-14T00:18:22.239Z,803.41
2018-05-14T00:18:26.558Z,803.43
2018-05-14T00:18:30.657Z,803.43
2018-05-14T00:18:34.766Z,803.42
2018-05-14T00:18:38.975Z,803.42
2018-05-14T00:18:43.279Z,803.44
2018-05-14T00:18:47.493Z,803.43
2018-05-14T00:18:51.813Z,803.41
2018-05-14T00:18:56.019Z,803.42
2018-05-14T00:19:00.244Z,803.44
2018-05-14T00:19:04.394Z,803.42
2018-05-14T00:19:08.716Z,803.43
2018-05-14T00:19:12.714Z,803.4
2018-05-14T00:19:17.039Z,803.42
2018-05-14T00:19:21.359Z,803.39
2018-05-14T00:19:25.465Z,803.42
2018-05-14T00:19:29.808Z,803.34
2018-05-14T00:19:34.029Z,803.34
2018-05-14T00:19:38.448Z,803.35
2018-05-14T00:19:42.770Z,803.38
2018-05-14T00:19:46.875Z,803.34
2018-05-14T00:19:50.971Z,803.37
2018-05-14T00:19:55.177Z,803.39
2018-05-14T00:19:59.492Z,803.37
2018-05-14T00:20:03.491Z,803.41
2018-05-14T00:20:07.380Z,803.39
2018-05-14T00:20:11.713Z,803.38
2018-05-14T00:20:16.030Z,803.39
2018-05-14T00:20:20.148Z,803.37
2018-05-14T00:20:24.138Z,803.33
2018-05-14T00:20:28.461Z,803.38
2018-05-14T00:20:32.667Z,803.39
2018-05-14T00:20:36.875Z,803.36
2018-05-14T00:20:41.079Z,803.33
2018-05-14T00:20:45.400Z,803.33
2018-05-14T00:20:49.622Z,803.37
2018-05-14T00:20:53.836Z,803.35
2018-05-14T00:20:58.155Z,803.37
2018-05-14T00:21:02.462Z,803.36
2018-05-14T00:21:06.455Z,803.36
2018-05-14T00:21:10.780Z,803.37
2018-05-14T00:21:14.995Z,803.36
2018-05-14T00:21:19.311Z,803.36
2018-05-14T00:21:23.309Z,803.33
2018-05-14T00:21:27.518Z,803.35
2018-05-14T00:21:31.726Z,803.37
2018-05-14T00:21:35.908Z,803.33
2018-05-14T00:21:40.123Z,803.32
2018-05-14T00:21:44.334Z,803.35
2018-05-14T00:21:48.656Z,803.34
2018-05-14T00:21:52.971Z,803.36
2018-05-14T00:21:57.186Z,803.33
2018-05-14T00:22:01.284Z,803.35
2018-05-14T00:22:05.506Z,803.36
2018-05-14T00:22:09.710Z,803.32
2018-05-14T00:22:13.935Z,803.35
2018-05-14T00:22:18.145Z,803.37
2018-05-14T00:22:22.251Z,803.39
2018-05-14T00:22:26.574Z,803.39
2018-05-14T00:22:30.896Z,803.36
2018-05-14T00:22:35.221Z,803.39
2018-05-14T00:22:39.430Z,803.39
2018-05-14T00:22:43.639Z,803.41
2018-05-14T00:22:47.962Z,803.4
2018-05-14T00:22:52.182Z,803.38
2018-05-14T00:22:56.498Z,803.38
2018-05-14T00:23:00.813Z,803.36
2018-05-14T00:23:04.888Z,803.38
2018-05-14T00:23:09.004Z,803.39
2018-05-14T00:23:13.321Z,803.38
2018-05-14T00:23:17.535Z,803.43
2018-05-14T00:23:21.857Z,803.38
2018-05-14T00:23:26.070Z,803.39
2018-05-14T00:23:30.276Z,803.36
2018-05-14T00:23:34.595Z,803.37
2018-05-14T00:23:38.911Z,803.39
2018-05-14T00:23:43.118Z,803.39
2018-05-14T00:23:47.439Z,803.38
2018-05-14T00:23:51.761Z,803.4
2018-05-14T00:23:55.971Z,803.41
2018-05-14T00:24:00.076Z,803.37
2018-05-14T00:24:04.285Z,803.35
2018-05-14T00:24:08.388Z,803.36
2018-05-14T00:24:12.597Z,803.38
2018-05-14T00:24:16.918Z,803.35
2018-05-14T00:24:21.232Z,803.4
2018-05-14T00:24:25.444Z,803.42
2018-05-14T00:24:29.752Z,803.4
2018-05-14T00:24:33.958Z,803.43
2018-05-14T00:24:38.273Z,803.42
2018-05-14T00:24:42.489Z,803.39
2018-05-14T00:24:46.711Z,803.37
2018-05-14T00:24:51.041Z,803.4
2018-05-14T00:24:55.358Z,803.38
2018-05-14T00:24:59.572Z,803.4
2018-05-14T00:25:03.672Z,803.38
2018-05-14T00:25:07.884Z,803.39
2018-05-14T00:25:12.099Z,803.39
2018-05-14T00:25:16.203Z,803.39
2018-05-14T00:25:20.531Z,803.4
2018-05-14T00:25:24.637Z,803.37
2018-05-14T00:25:28.974Z,803.36
2018-05-14T00:25:33.181Z,803.41
2018-05-14T00:25:37.394Z,803.35
2018-05-14T00:25:41.705Z,803.36
2018-05-14T00:25:45.807Z,803.36
2018-05-14T00:25:50.019Z,803.38
2018-05-14T00:25:54.135Z,803.36
2018-05-14T00:25:58.344Z,803.37
2018-05-14T00:26:02.554Z,803.39
2018-05-14T00:26:06.660Z,803.36
2018-05-14T00:26:10.764Z,803.36
2018-05-14T00:26:14.873Z,803.34
2018-05-14T00:26:18.973Z,803.36
2018-05-14T00:26:22.967Z,803.35
2018-05-14T00:26:27.175Z,803.31
2018-05-14T00:26:31.383Z,803.32
2018-05-14T00:26:35.497Z,803.39
2018-05-14T00:26:39.823Z,803.38
2018-05-14T00:26:44.037Z,803.36
2018-05-14T00:26:48.258Z,803.35
2018-05-14T00:26:52.589Z,803.39
2018-05-14T00:26:56.800Z,803.34
2018-05-14T00:27:01.119Z,803.33
2018-05-14T00:27:05.344Z,803.38
2018-05-14T00:27:09.748Z,803.37
2018-05-14T00:27:13.741Z,803.41
2018-05-14T00:27:18.041Z,803.38
2018-05-14T00:27:22.264Z,803.39
2018-05-14T00:27:26.481Z,803.38
2018-05-14T00:27:30.809Z,803.38
2018-05-14T00:27:34.807Z,803.37
2018-05-14T00:27:38.930Z,803.38
2018-05-14T00:27:43.160Z,803.4
2018-05-14T00:27:47.366Z,803.36
2018-05-14T00:27:51.698Z,803.35
2018-05-14T00:27:55.919Z,803.36
2018-05-14T00:28:00.248Z,803.36
2018-05-14T00:28:40.455Z,803.36
2018-05-14T00:28:44.829Z,803.34
2018-05-14T00:28:49.145Z,803.35
2018-05-14T00:28:53.355Z,803.34
2018-05-14T00:28:57.649Z,803.38
2018-05-14T00:29:02.169Z,803.37
2018-05-14T00:29:06.265Z,803.36
2018-05-14T00:29:10.595Z,803.39
2018-05-14T00:29:14.920Z,803.38
2018-05-14T00:29:19.142Z,803.36
2018-05-14T00:29:23.457Z,803.38
2018-05-14T00:29:27.463Z,803.38
2018-05-14T00:29:31.685Z,803.36
2018-05-14T00:29:35.992Z,803.39
2018-05-14T00:29:40.311Z,803.36
2018-05-14T00:29:44.520Z,803.4
2018-05-14T00:29:48.772Z,803.37
2018-05-14T00:29:53.089Z,803.34
2018-05-14T00:29:57.406Z,803.41
2018-05-14T00:30:01.612Z,803.32
2018-05-14T00:30:05.611Z,803.35
2018-05-14T00:30:09.827Z,803.39
2018-05-14T00:30:14.143Z,803.39
2018-05-14T00:30:18.473Z,803.37
2018-05-14T00:30:22.570Z,803.37
2018-05-14T00:30:26.889Z,803.38
2018-05-14T00:30:31.212Z,803.32
2018-05-14T00:30:35.320Z,803.35
2018-05-14T00:30:39.645Z,803.36
2018-05-14T00:30:43.965Z,803.4
2018-05-14T00:30:48.174Z,803.3
2018-05-14T00:30:52.383Z,803.38
2018-05-14T00:30:56.703Z,803.36
2018-05-14T00:31:01.016Z,803.37
2018-05-14T00:31:05.113Z,803.36
2018-05-14T00:31:09.219Z,803.36
2018-05-14T00:31:13.544Z,803.35
2018-05-14T00:31:17.762Z,803.39
2018-05-14T00:31:22.079Z,803.4
2018-05-14T00:31:26.080Z,803.41
2018-05-14T00:31:30.293Z,803.37
2018-05-14T00:31:34.614Z,803.39
2018-05-14T00:31:38.823Z,803.39
2018-05-14T00:31:43.114Z,803.42
2018-05-14T00:31:47.326Z,803.38
2018-05-14T00:31:51.549Z,803.37
2018-05-14T00:31:55.865Z,803.39
2018-05-14T00:32:00.074Z,803.37
2018-05-14T00:32:04.274Z,803.39
2018-05-14T00:32:08.484Z,803.4
2018-05-14T00:32:12.587Z,803.42
2018-05-14T00:32:16.693Z,803.42
2018-05-14T00:32:20.811Z,803.34
2018-05-14T00:32:25.130Z,803.4
2018-05-14T00:32:29.338Z,803.41
2018-05-14T00:32:33.440Z,803.39
2018-05-14T00:32:37.647Z,803.39
2018-05-14T00:32:41.853Z,803.39
2018-05-14T00:32:46.079Z,803.39
2018-05-14T00:32:50.186Z,803.41
2018-05-14T00:32:54.398Z,803.41
2018-05-14T00:32:58.713Z,803.35
2018-05-14T00:33:02.709Z,803.37
2018-05-14T00:33:06.920Z,803.42
2018-05-14T00:33:11.112Z,803.43
2018-05-14T00:33:15.438Z,803.42
2018-05-14T00:33:19.431Z,803.41
2018-05-14T00:33:23.649Z,803.38
2018-05-14T00:33:27.865Z,803.43
2018-05-14T00:33:32.073Z,803.41
2018-05-14T00:33:36.392Z,803.4
2018-05-14T00:33:40.601Z,803.42
2018-05-14T00:33:44.813Z,803.42
2018-05-14T00:33:49.017Z,803.42
2018-05-14T00:33:53.342Z,803.36
2018-05-14T00:33:57.633Z,803.38
2018-05-14T00:34:01.944Z,803.42
2018-05-14T00:34:06.200Z,803.43
2018-05-14T00:34:10.514Z,803.41
2018-05-14T00:34:14.723Z,803.43
2018-05-14T00:34:19.046Z,803.42
2018-05-14T00:34:23.376Z,803.47
2018-05-14T00:34:27.599Z,803.37
2018-05-14T00:34:31.916Z,803.46
2018-05-14T00:34:36.234Z,803.44
2018-05-14T00:34:40.557Z,803.42
2018-05-14T00:34:44.769Z,803.39
2018-05-14T00:34:48.975Z,803.4
2018-05-14T00:34:53.196Z,803.38
2018-05-14T00:34:57.190Z,803.42
2018-05-14T00:35:01.294Z,803.42
2018-05-14T00:35:05.300Z,803.36
2018-05-14T00:35:09.421Z,803.41
2018-05-14T00:35:13.631Z,803.42
2018-05-14T00:35:17.951Z,803.42
2018-05-14T00:35:22.276Z,803.45
2018-05-14T00:35:26.624Z,803.42
2018-05-14T00:35:30.851Z,803.39
2018-05-14T00:35:35.069Z,803.42
2018-05-14T00:35:39.385Z,803.45
2018-05-14T00:35:43.611Z,803.44
2018-05-14T00:35:47.712Z,803.42
2018-05-14T00:35:52.034Z,803.43
2018-05-14T00:35:56.141Z,803.42
2018-05-14T00:36:00.356Z,803.41
2018-05-14T00:36:04.574Z,803.39
2018-05-14T00:36:08.789Z,803.42
2018-05-14T00:36:12.896Z,803.42
2018-05-14T00:36:17.216Z,803.41
2018-05-14T00:36:21.324Z,803.43
2018-05-14T00:36:25.546Z,803.43
2018-05-14T00:36:29.763Z,803.43
2018-05-14T00:36:34.081Z,803.39
2018-05-14T00:36:38.185Z,803.42
2018-05-14T00:36:42.179Z,803.39
2018-05-14T00:36:46.497Z,803.44
2018-05-14T00:36:50.720Z,803.41
2018-05-14T00:36:54.942Z,803.41
2018-05-14T00:36:59.152Z,803.39
2018-05-14T00:37:03.367Z,803.42
2018-05-14T00:37:07.574Z,803.38
2018-05-14T00:37:11.899Z,803.41
2018-05-14T00:37:16.220Z,803.38
2018-05-14T00:37:20.430Z,803.39
2018-05-14T00:37:24.745Z,803.34
2018-05-14T00:37:28.962Z,803.4
2018-05-14T00:37:33.284Z,803.39
2018-05-14T00:37:37.607Z,803.38
2018-05-14T00:37:41.925Z,803.4
2018-05-14T00:37:46.308Z,803.39
2018-05-14T00:37:50.513Z,803.42
2018-05-14T00:37:54.725Z,803.38
2018-05-14T00:37:59.126Z,803.39
2018-05-14T00:38:03.227Z,803.38
2018-05-14T00:38:07.562Z,803.36
2018-05-14T00:38:11.783Z,803.38
2018-05-14T00:38:15.992Z,803.37
2018-05-14T00:38:20.093Z,803.38
2018-05-14T00:38:24.087Z,803.39
2018-05-14T00:38:28.295Z,803.38
2018-05-14T00:38:32.615Z,803.38
2018-05-14T00:38:36.717Z,803.35
2018-05-14T00:38:40.819Z,803.39
2018-05-14T00:38:45.032Z,803.37
2018-05-14T00:38:49.360Z,803.37
2018-05-14T00:38:53.460Z,803.38
2018-05-14T00:38:57.779Z,803.35
2018-05-14T00:39:01.986Z,803.33
2018-05-14T00:39:06.306Z,803.34
2018-05-14T00:39:10.624Z,803.35
2018-05-14T00:39:14.834Z,803.38
2018-05-14T00:39:19.155Z,803.38
2018-05-14T00:39:23.263Z,803.39
2018-05-14T00:39:27.260Z,803.43
2018-05-14T00:39:31.253Z,803.39
2018-05-14T00:39:35.631Z,803.37
2018-05-14T00:39:39.839Z,803.38
2018-05-14T00:39:44.045Z,803.38
2018-05-14T00:39:48.041Z,803.41
2018-05-14T00:39:52.143Z,803.4
2018-05-14T00:39:56.357Z,803.41
2018-05-14T00:40:00.456Z,803.41
2018-05-14T00:40:04.559Z,803.42
2018-05-14T00:40:08.885Z,803.37
2018-05-14T00:40:12.880Z,803.36
2018-05-14T00:40:17.200Z,803.36
2018-05-14T00:40:21.314Z,803.37
2018-05-14T00:40:25.523Z,803.34
2018-05-14T00:40:29.740Z,803.37
2018-05-14T00:40:33.956Z,803.33
2018-05-14T00:40:38.285Z,803.36
2018-05-14T00:40:42.604Z,803.39
2018-05-14T00:40:46.595Z,803.33
2018-05-14T00:40:50.911Z,803.36
2018-05-14T00:40:55.016Z,803.38
2018-05-14T00:40:59.329Z,803.33
2018-05-14T00:41:03.653Z,803.35
2018-05-14T00:41:07.650Z,803.34
2018-05-14T00:41:11.864Z,803.38
2018-05-14T00:41:15.860Z,803.32
2018-05-14T00:41:19.957Z,803.35
2018-05-14T00:41:24.169Z,803.36
2018-05-14T00:41:28.165Z,803.34
2018-05-14T00:41:32.267Z,803.35
2018-05-14T00:41:36.596Z,803.32
2018-05-14T00:41:40.821Z,803.34
2018-05-14T00:41:44.921Z,803.33
2018-05-14T00:41:49.133Z,803.34
2018-05-14T00:41:53.457Z,803.35
2018-05-14T00:41:57.555Z,803.35
2018-05-14T00:42:01.767Z,803.36
2018-05-14T00:42:05.879Z,803.36
2018-05-14T00:42:10.099Z,803.37
2018-05-14T00:42:14.421Z,803.37
2018-05-14T00:42:18.526Z,803.35
2018-05-14T00:42:22.740Z,803.38
2018-05-14T00:42:26.954Z,803.33
2018-05-14T00:42:31.181Z,803.36
2018-05-14T00:42:35.392Z,803.34
2018-05-14T00:42:39.493Z,803.36
2018-05-14T00:42:43.709Z,803.35
2018-05-14T00:42:47.816Z,803.33
2018-05-14T00:42:52.144Z,803.35
2018-05-14T00:42:56.471Z,803.31
2018-05-14T00:43:00.684Z,803.33
2018-05-14T00:43:04.899Z,803.31
2018-05-14T00:43:09.117Z,803.31
2018-05-14T00:43:13.332Z,803.34
2018-05-14T00:43:17.546Z,803.31
2018-05-14T00:43:21.760Z,803.29
2018-05-14T00:43:26.070Z,803.31
2018-05-14T00:43:30.398Z,803.28
2018-05-14T00:43:34.498Z,803.31
2018-05-14T00:43:38.914Z,803.32
2018-05-14T00:43:43.123Z,803.33
2018-05-14T00:43:47.449Z,803.32
2018-05-14T00:43:51.764Z,803.33
2018-05-14T00:43:55.982Z,803.31
2018-05-14T00:44:00.191Z,803.31
2018-05-14T00:44:04.623Z,803.26
2018-05-14T00:44:08.833Z,803.3
2018-05-14T00:44:13.047Z,803.25
2018-05-14T00:44:17.371Z,803.25
2018-05-14T00:44:21.479Z,803.27
2018-05-14T00:44:25.891Z,803.29
2018-05-14T00:44:29.881Z,803.31
2018-05-14T00:44:34.212Z,803.28
2018-05-14T00:44:38.631Z,803.31
2018-05-14T00:44:42.960Z,803.28
2018-05-14T00:44:47.067Z,803.32
2018-05-14T00:44:51.281Z,803.32
2018-05-14T00:44:55.609Z,803.26
2018-05-14T00:44:59.937Z,803.29
2018-05-14T00:45:04.038Z,803.3
2018-05-14T00:45:08.141Z,803.3
2018-05-14T00:45:12.359Z,803.31
2018-05-14T00:45:16.462Z,803.29
2018-05-14T00:45:20.562Z,803.26
2018-05-14T00:45:24.788Z,803.28
2018-05-14T00:45:29.106Z,803.3
2018-05-14T00:45:33.210Z,803.28
2018-05-14T00:45:37.530Z,803.26
2018-05-14T00:45:41.741Z,803.26
2018-05-14T00:45:45.840Z,803.27
2018-05-14T00:45:50.059Z,803.25
2018-05-14T00:45:54.165Z,803.26
2018-05-14T00:45:58.483Z,803.25
2018-05-14T00:46:02.784Z,803.21
2018-05-14T00:46:07.118Z,803.24
2018-05-14T00:46:11.331Z,803.26
2018-05-14T00:46:15.448Z,803.26
2018-05-14T00:46:19.668Z,803.25
2018-05-14T00:46:23.988Z,803.23
2018-05-14T00:46:28.104Z,803.25
2018-05-14T00:46:32.323Z,803.25
2018-05-14T00:46:36.642Z,803.22
2018-05-14T00:46:40.859Z,803.23
2018-05-14T00:46:45.176Z,803.25
2018-05-14T00:46:49.390Z,803.24
2018-05-14T00:46:53.595Z,803.23
2018-05-14T00:46:57.708Z,803.25
2018-05-14T00:47:01.916Z,803.26
2018-05-14T00:47:06.237Z,803.23
2018-05-14T00:47:10.556Z,803.27
2018-05-14T00:47:14.884Z,803.29
2018-05-14T00:47:19.199Z,803.25
2018-05-14T00:47:23.312Z,803.21
2018-05-14T00:47:27.632Z,803.24
2018-05-14T00:47:31.739Z,803.26
2018-05-14T00:47:35.841Z,803.26
2018-05-14T00:47:40.135Z,803.24
2018-05-14T00:47:44.449Z,803.29
2018-05-14T00:47:48.771Z,803.25
2018-05-14T00:47:53.095Z,803.24
2018-05-14T00:47:57.207Z,803.25
2018-05-14T00:48:01.431Z,803.23
2018-05-14T00:48:05.697Z,803.25
2018-05-14T00:48:09.904Z,803.23
2018-05-14T00:48:14.231Z,803.22
2018-05-14T00:48:18.550Z,803.22
2018-05-14T00:48:22.658Z,803.24
2018-05-14T00:48:26.863Z,803.21
2018-05-14T00:48:30.965Z,803.21
2018-05-14T00:48:35.068Z,803.21
2018-05-14T00:48:39.285Z,803.25
2018-05-14T00:48:43.606Z,803.21
2018-05-14T00:48:47.924Z,803.23
2018-05-14T00:48:52.135Z,803.24
2018-05-14T00:48:56.450Z,803.23
2018-05-14T00:49:00.668Z,803.28
2018-05-14T00:49:04.993Z,803.22
2018-05-14T00:49:09.320Z,803.24
2018-05-14T00:49:13.396Z,803.22
2018-05-14T00:49:17.611Z,803.28
2018-05-14T00:49:22.256Z,803.26
2018-05-14T00:49:26.730Z,803.27
2018-05-14T00:49:31.101Z,803.27
2018-05-14T00:49:35.981Z,803.27
2018-05-14T00:49:40.294Z,803.26
2018-05-14T00:49:44.398Z,803.25
2018-05-14T00:49:48.609Z,803.28
2018-05-14T00:49:52.857Z,803.24
2018-05-14T00:49:57.066Z,803.22
2018-05-14T00:50:01.384Z,803.2
2018-05-14T00:50:05.428Z,803.24
2018-05-14T00:50:09.746Z,803.28
2018-05-14T00:50:14.063Z,803.18
2018-05-14T00:50:18.271Z,803.28
2018-05-14T00:50:22.478Z,803.26
2018-05-14T00:50:26.582Z,803.25
2018-05-14T00:50:30.790Z,803.23
2018-05-14T00:50:35.012Z,803.24
2018-05-14T00:50:39.224Z,803.29
2018-05-14T00:50:43.542Z,803.24
2018-05-14T00:50:47.749Z,803.23
2018-05-14T00:50:51.958Z,803.24
2018-05-14T00:50:56.281Z,803.25
2018-05-14T00:51:00.388Z,803.25
2018-05-14T00:51:04.491Z,803.24
2018-05-14T00:51:08.807Z,803.24
2018-05-14T00:51:13.001Z,803.25
2018-05-14T00:51:17.319Z,803.19
2018-05-14T00:51:21.424Z,803.2
2018-05-14T00:51:25.745Z,803.21
2018-05-14T00:51:29.851Z,803.22
2018-05-14T00:51:33.734Z,803.21
2018-05-14T00:51:37.729Z,803.23
2018-05-14T00:51:42.051Z,803.21
2018-05-14T00:51:46.375Z,803.21
2018-05-14T00:51:50.258Z,803.23
2018-05-14T00:51:54.467Z,803.24
2018-05-14T00:51:58.567Z,803.22
2018-05-14T00:52:02.557Z,803.2
2018-05-14T00:52:06.773Z,803.17
2018-05-14T00:52:10.985Z,803.19
2018-05-14T00:52:15.308Z,803.18
2018-05-14T00:52:19.635Z,803.18
2018-05-14T00:52:23.849Z,803.16
2018-05-14T00:52:28.067Z,803.18
2018-05-14T00:52:32.278Z,803.18
2018-05-14T00:52:36.381Z,803.16
2018-05-14T00:52:40.481Z,803.17
2018-05-14T00:52:44.580Z,803.2
2018-05-14T00:52:48.978Z,803.2
2018-05-14T00:52:53.195Z,803.23
2018-05-14T00:52:57.512Z,803.18
2018-05-14T00:53:01.851Z,803.2
2018-05-14T00:53:06.077Z,803.2
2018-05-14T00:53:10.399Z,803.19
2018-05-14T00:53:14.716Z,803.19
2018-05-14T00:53:19.030Z,803.2
2018-05-14T00:53:23.131Z,803.18